sensor_id;sensor_type;location;lat;lon;timestamp;P1;durP1;ratioP1;P2;durP2;ratioP2
12451;SDS011;6291;48.924;12.204;2022-08-01T00:04:39;2.25;;;2.03;;
12451;SDS011;6291;48.924;12.204;2022-08-01T00:09:43;2.25;;;2.05;;
12451;SDS011;6291;48.924;12.204;2022-08-01T00:14:47;2.58;;;2.30;;
12451;SDS011;6291;48.924;12.204;2022-08-01T00:19:50;1.98;;;1.85;;
12451;SDS011;6291;48.924;12.204;2022-08-01T00:24:55;2.20;;;2.00;;
12451;SDS011;6291;48.924;12.204;2022-08-01T00:29:58;3.42;;;1.75;;
12451;SDS011;6291;48.924;12.204;2022-08-01T00:35:14;2.40;;;2.15;;
12451;SDS011;6291;48.924;12.204;2022-08-01T00:40:19;1.73;;;1.63;;
12451;SDS011;6291;48.924;12.204;2022-08-01T00:45:22;2.13;;;1.90;;
12451;SDS011;6291;48.924;12.204;2022-08-01T00:50:27;2.17;;;1.80;;
12451;SDS011;6291;48.924;12.204;2022-08-01T00:55:32;2.45;;;2.13;;
12451;SDS011;6291;48.924;12.204;2022-08-01T01:00:36;2.22;;;2.03;;
12451;SDS011;6291;48.924;12.204;2022-08-01T01:05:56;2.85;;;2.00;;
12451;SDS011;6291;48.924;12.204;2022-08-01T01:11:10;2.20;;;2.00;;
12451;SDS011;6291;48.924;12.204;2022-08-01T01:16:17;2.30;;;2.10;;
12451;SDS011;6291;48.924;12.204;2022-08-01T01:21:38;1.90;;;1.80;;
12451;SDS011;6291;48.924;12.204;2022-08-01T01:26:52;2.47;;;1.90;;
12451;SDS011;6291;48.924;12.204;2022-08-01T01:32:04;2.00;;;1.90;;
12451;SDS011;6291;48.924;12.204;2022-08-01T01:37:11;3.10;;;2.08;;
12451;SDS011;6291;48.924;12.204;2022-08-01T01:42:17;2.45;;;1.90;;
12451;SDS011;6291;48.924;12.204;2022-08-01T01:47:23;1.92;;;1.83;;
12451;SDS011;6291;48.924;12.204;2022-08-01T01:52:28;2.63;;;2.13;;
12451;SDS011;6291;48.924;12.204;2022-08-01T01:57:35;2.33;;;1.98;;
12451;SDS011;6291;48.924;12.204;2022-08-01T02:02:42;2.88;;;2.22;;
12451;SDS011;6291;48.924;12.204;2022-08-01T02:07:47;3.22;;;2.30;;
12451;SDS011;6291;48.924;12.204;2022-08-01T02:13:00;3.53;;;2.17;;
12451;SDS011;6291;48.924;12.204;2022-08-01T02:18:07;2.30;;;2.10;;
12451;SDS011;6291;48.924;12.204;2022-08-01T02:23:13;2.85;;;2.10;;
12451;SDS011;6291;48.924;12.204;2022-08-01T02:28:17;2.38;;;2.20;;
12451;SDS011;6291;48.924;12.204;2022-08-01T02:33:29;2.38;;;2.20;;
12451;SDS011;6291;48.924;12.204;2022-08-01T02:38:40;2.35;;;2.00;;
12451;SDS011;6291;48.924;12.204;2022-08-01T02:43:47;2.90;;;2.10;;
12451;SDS011;6291;48.924;12.204;2022-08-01T02:48:56;3.30;;;2.00;;
12451;SDS011;6291;48.924;12.204;2022-08-01T02:54:03;3.88;;;2.42;;
12451;SDS011;6291;48.924;12.204;2022-08-01T02:59:10;2.92;;;2.15;;
12451;SDS011;6291;48.924;12.204;2022-08-01T03:04:23;2.38;;;2.17;;
12451;SDS011;6291;48.924;12.204;2022-08-01T03:09:28;2.33;;;2.00;;
12451;SDS011;6291;48.924;12.204;2022-08-01T03:14:35;2.47;;;2.10;;
12451;SDS011;6291;48.924;12.204;2022-08-01T03:19:42;3.72;;;2.40;;
12451;SDS011;6291;48.924;12.204;2022-08-01T03:24:49;2.25;;;2.00;;
12451;SDS011;6291;48.924;12.204;2022-08-01T03:29:55;2.55;;;2.30;;
12451;SDS011;6291;48.924;12.204;2022-08-01T03:35:02;2.28;;;2.05;;
12451;SDS011;6291;48.924;12.204;2022-08-01T03:40:07;2.35;;;1.90;;
12451;SDS011;6291;48.924;12.204;2022-08-01T03:45:19;2.83;;;2.20;;
12451;SDS011;6291;48.924;12.204;2022-08-01T03:50:25;3.83;;;2.10;;
12451;SDS011;6291;48.924;12.204;2022-08-01T03:55:30;2.05;;;1.90;;
12451;SDS011;6291;48.924;12.204;2022-08-01T04:00:35;2.60;;;2.40;;
12451;SDS011;6291;48.924;12.204;2022-08-01T04:05:42;2.88;;;2.10;;
12451;SDS011;6291;48.924;12.204;2022-08-01T04:10:46;2.55;;;2.13;;
12451;SDS011;6291;48.924;12.204;2022-08-01T04:15:50;2.60;;;2.20;;
12451;SDS011;6291;48.924;12.204;2022-08-01T04:20:55;2.22;;;1.98;;
12451;SDS011;6291;48.924;12.204;2022-08-01T04:25:59;2.15;;;2.03;;
12451;SDS011;6291;48.924;12.204;2022-08-01T04:31:07;2.92;;;2.10;;
12451;SDS011;6291;48.924;12.204;2022-08-01T04:36:14;2.55;;;1.90;;
12451;SDS011;6291;48.924;12.204;2022-08-01T04:41:20;1.73;;;1.63;;
12451;SDS011;6291;48.924;12.204;2022-08-01T04:46:25;2.20;;;2.00;;
12451;SDS011;6291;48.924;12.204;2022-08-01T04:51:31;3.22;;;2.10;;
12451;SDS011;6291;48.924;12.204;2022-08-01T04:56:34;3.22;;;1.55;;
12451;SDS011;6291;48.924;12.204;2022-08-01T05:01:37;1.77;;;1.67;;
12451;SDS011;6291;48.924;12.204;2022-08-01T05:06:42;3.78;;;2.10;;
12451;SDS011;6291;48.924;12.204;2022-08-01T05:11:46;2.00;;;1.85;;
12451;SDS011;6291;48.924;12.204;2022-08-01T05:16:49;2.10;;;1.98;;
12451;SDS011;6291;48.924;12.204;2022-08-01T05:21:54;1.85;;;1.75;;
12451;SDS011;6291;48.924;12.204;2022-08-01T05:27:02;2.17;;;1.98;;
12451;SDS011;6291;48.924;12.204;2022-08-01T05:32:07;2.10;;;1.85;;
12451;SDS011;6291;48.924;12.204;2022-08-01T05:37:12;2.05;;;1.92;;
12451;SDS011;6291;48.924;12.204;2022-08-01T05:42:16;2.65;;;1.85;;
12451;SDS011;6291;48.924;12.204;2022-08-01T05:47:19;3.13;;;2.03;;
12451;SDS011;6291;48.924;12.204;2022-08-01T05:52:24;2.22;;;1.88;;
12451;SDS011;6291;48.924;12.204;2022-08-01T05:57:27;2.00;;;1.80;;
12451;SDS011;6291;48.924;12.204;2022-08-01T06:02:30;2.92;;;1.90;;
12451;SDS011;6291;48.924;12.204;2022-08-01T06:07:35;2.10;;;1.90;;
12451;SDS011;6291;48.924;12.204;2022-08-01T06:12:40;2.08;;;1.88;;
12451;SDS011;6291;48.924;12.204;2022-08-01T06:17:44;2.85;;;1.88;;
12451;SDS011;6291;48.924;12.204;2022-08-01T06:22:48;2.90;;;1.85;;
12451;SDS011;6291;48.924;12.204;2022-08-01T06:27:53;1.45;;;1.27;;
12451;SDS011;6291;48.924;12.204;2022-08-01T06:32:56;1.23;;;1.13;;
12451;SDS011;6291;48.924;12.204;2022-08-01T06:38:01;3.25;;;1.40;;
12451;SDS011;6291;48.924;12.204;2022-08-01T06:43:04;1.50;;;1.40;;
12451;SDS011;6291;48.924;12.204;2022-08-01T06:48:08;3.55;;;2.35;;
12451;SDS011;6291;48.924;12.204;2022-08-01T06:53:12;1.60;;;1.30;;
12451;SDS011;6291;48.924;12.204;2022-08-01T06:58:16;2.00;;;1.02;;
12451;SDS011;6291;48.924;12.204;2022-08-01T07:03:20;2.00;;;1.17;;
12451;SDS011;6291;48.924;12.204;2022-08-01T07:08:25;1.90;;;0.98;;
12451;SDS011;6291;48.924;12.204;2022-08-01T07:13:28;1.53;;;1.10;;
12451;SDS011;6291;48.924;12.204;2022-08-01T07:18:44;1.88;;;1.10;;
12451;SDS011;6291;48.924;12.204;2022-08-01T07:23:49;2.40;;;1.17;;
12451;SDS011;6291;48.924;12.204;2022-08-01T07:28:56;1.87;;;1.43;;
12451;SDS011;6291;48.924;12.204;2022-08-01T07:33:59;1.60;;;1.10;;
12451;SDS011;6291;48.924;12.204;2022-08-01T07:39:05;2.50;;;1.20;;
12451;SDS011;6291;48.924;12.204;2022-08-01T07:44:08;1.23;;;1.02;;
12451;SDS011;6291;48.924;12.204;2022-08-01T07:49:15;3.10;;;2.20;;
12451;SDS011;6291;48.924;12.204;2022-08-01T07:54:20;3.10;;;1.30;;
12451;SDS011;6291;48.924;12.204;2022-08-01T07:59:34;1.30;;;1.20;;
12451;SDS011;6291;48.924;12.204;2022-08-01T08:04:38;1.77;;;1.10;;
12451;SDS011;6291;48.924;12.204;2022-08-01T08:09:48;1.40;;;1.30;;
12451;SDS011;6291;48.924;12.204;2022-08-01T08:14:53;1.80;;;1.10;;
12451;SDS011;6291;48.924;12.204;2022-08-01T08:19:57;1.10;;;1.00;;
12451;SDS011;6291;48.924;12.204;2022-08-01T08:25:02;1.95;;;1.10;;
12451;SDS011;6291;48.924;12.204;2022-08-01T08:30:08;2.22;;;1.08;;
12451;SDS011;6291;48.924;12.204;2022-08-01T08:35:12;2.33;;;1.27;;
12451;SDS011;6291;48.924;12.204;2022-08-01T08:40:25;3.90;;;2.30;;
12451;SDS011;6291;48.924;12.204;2022-08-01T08:45:32;1.40;;;1.30;;
12451;SDS011;6291;48.924;12.204;2022-08-01T08:50:56;1.33;;;1.10;;
12451;SDS011;6291;48.924;12.204;2022-08-01T08:56:03;1.90;;;1.23;;
12451;SDS011;6291;48.924;12.204;2022-08-01T09:01:10;1.42;;;1.10;;
12451;SDS011;6291;48.924;12.204;2022-08-01T09:06:14;2.47;;;1.33;;
12451;SDS011;6291;48.924;12.204;2022-08-01T09:11:18;2.08;;;1.55;;
12451;SDS011;6291;48.924;12.204;2022-08-01T09:16:23;1.30;;;1.20;;
12451;SDS011;6291;48.924;12.204;2022-08-01T09:21:26;1.47;;;1.20;;
12451;SDS011;6291;48.924;12.204;2022-08-01T09:26:37;1.85;;;1.30;;
12451;SDS011;6291;48.924;12.204;2022-08-01T09:31:41;2.23;;;1.07;;
12451;SDS011;6291;48.924;12.204;2022-08-01T09:36:49;1.20;;;0.90;;
12451;SDS011;6291;48.924;12.204;2022-08-01T09:41:57;2.17;;;1.20;;
12451;SDS011;6291;48.924;12.204;2022-08-01T09:47:02;1.95;;;1.00;;
12451;SDS011;6291;48.924;12.204;2022-08-01T09:52:12;1.65;;;1.10;;
12451;SDS011;6291;48.924;12.204;2022-08-01T09:57:19;1.27;;;1.10;;
12451;SDS011;6291;48.924;12.204;2022-08-01T10:02:28;1.20;;;1.10;;
12451;SDS011;6291;48.924;12.204;2022-08-01T10:07:35;1.98;;;0.90;;
12451;SDS011;6291;48.924;12.204;2022-08-01T10:12:59;2.00;;;1.00;;
12451;SDS011;6291;48.924;12.204;2022-08-01T10:18:05;1.80;;;0.87;;
12451;SDS011;6291;48.924;12.204;2022-08-01T10:23:21;1.85;;;1.10;;
12451;SDS011;6291;48.924;12.204;2022-08-01T10:28:43;1.10;;;0.98;;
12451;SDS011;6291;48.924;12.204;2022-08-01T10:33:51;1.20;;;1.10;;
12451;SDS011;6291;48.924;12.204;2022-08-01T10:38:58;0.93;;;0.90;;
12451;SDS011;6291;48.924;12.204;2022-08-01T10:44:03;2.42;;;1.02;;
12451;SDS011;6291;48.924;12.204;2022-08-01T10:49:10;2.03;;;1.10;;
12451;SDS011;6291;48.924;12.204;2022-08-01T10:54:16;1.63;;;1.02;;
12451;SDS011;6291;48.924;12.204;2022-08-01T10:59:21;1.35;;;1.00;;
12451;SDS011;6291;48.924;12.204;2022-08-01T11:04:48;1.52;;;1.20;;
12451;SDS011;6291;48.924;12.204;2022-08-01T11:10:00;1.17;;;1.08;;
12451;SDS011;6291;48.924;12.204;2022-08-01T11:15:18;1.80;;;1.15;;
12451;SDS011;6291;48.924;12.204;2022-08-01T11:20:33;2.63;;;1.10;;
12451;SDS011;6291;48.924;12.204;2022-08-01T11:31:26;0.85;;;0.85;;
12451;SDS011;6291;48.924;12.204;2022-08-01T11:36:38;2.20;;;0.80;;
12451;SDS011;6291;48.924;12.204;2022-08-01T11:52:50;1.20;;;0.80;;
12451;SDS011;6291;48.924;12.204;2022-08-01T11:58:00;1.80;;;0.80;;
12451;SDS011;6291;48.924;12.204;2022-08-01T12:03:07;2.57;;;0.70;;
12451;SDS011;6291;48.924;12.204;2022-08-01T12:08:25;0.82;;;0.70;;
12451;SDS011;6291;48.924;12.204;2022-08-01T12:13:30;0.70;;;0.70;;
12451;SDS011;6291;48.924;12.204;2022-08-01T12:18:44;2.00;;;0.83;;
12451;SDS011;6291;48.924;12.204;2022-08-01T12:23:59;0.90;;;0.68;;
12451;SDS011;6291;48.924;12.204;2022-08-01T12:29:03;1.40;;;0.80;;
12451;SDS011;6291;48.924;12.204;2022-08-01T12:34:26;1.25;;;0.80;;
12451;SDS011;6291;48.924;12.204;2022-08-01T12:39:34;1.60;;;0.90;;
12451;SDS011;6291;48.924;12.204;2022-08-01T12:44:42;1.13;;;0.90;;
12451;SDS011;6291;48.924;12.204;2022-08-01T12:49:50;0.80;;;0.80;;
12451;SDS011;6291;48.924;12.204;2022-08-01T12:55:00;0.75;;;0.70;;
12451;SDS011;6291;48.924;12.204;2022-08-01T13:00:13;1.27;;;0.80;;
12451;SDS011;6291;48.924;12.204;2022-08-01T13:05:20;0.82;;;0.65;;
12451;SDS011;6291;48.924;12.204;2022-08-01T13:10:29;1.10;;;0.83;;
12451;SDS011;6291;48.924;12.204;2022-08-01T13:15:33;1.30;;;1.02;;
12451;SDS011;6291;48.924;12.204;2022-08-01T13:20:43;1.70;;;0.80;;
12451;SDS011;6291;48.924;12.204;2022-08-01T13:25:54;1.67;;;0.60;;
12451;SDS011;6291;48.924;12.204;2022-08-01T13:30:58;2.00;;;0.65;;
12451;SDS011;6291;48.924;12.204;2022-08-01T13:36:04;1.60;;;0.70;;
12451;SDS011;6291;48.924;12.204;2022-08-01T13:41:08;1.00;;;0.70;;
12451;SDS011;6291;48.924;12.204;2022-08-01T13:46:11;1.10;;;1.00;;
12451;SDS011;6291;48.924;12.204;2022-08-01T13:51:20;1.13;;;0.80;;
12451;SDS011;6291;48.924;12.204;2022-08-01T13:56:24;0.90;;;0.60;;
12451;SDS011;6291;48.924;12.204;2022-08-01T14:01:28;1.65;;;0.60;;
12451;SDS011;6291;48.924;12.204;2022-08-01T14:06:36;0.80;;;0.80;;
12451;SDS011;6291;48.924;12.204;2022-08-01T14:11:42;2.00;;;0.60;;
12451;SDS011;6291;48.924;12.204;2022-08-01T14:16:46;0.70;;;0.50;;
12451;SDS011;6291;48.924;12.204;2022-08-01T14:21:52;1.50;;;0.70;;
12451;SDS011;6291;48.924;12.204;2022-08-01T14:26:55;1.17;;;0.60;;
12451;SDS011;6291;48.924;12.204;2022-08-01T14:31:59;0.90;;;0.60;;
12451;SDS011;6291;48.924;12.204;2022-08-01T14:37:03;1.27;;;0.60;;
12451;SDS011;6291;48.924;12.204;2022-08-01T14:42:08;2.13;;;0.52;;
12451;SDS011;6291;48.924;12.204;2022-08-01T14:47:12;1.30;;;0.60;;
12451;SDS011;6291;48.924;12.204;2022-08-01T14:52:23;1.55;;;0.55;;
12451;SDS011;6291;48.924;12.204;2022-08-01T14:57:27;1.20;;;0.40;;
12451;SDS011;6291;48.924;12.204;2022-08-01T15:02:31;1.00;;;0.40;;
12451;SDS011;6291;48.924;12.204;2022-08-01T15:07:36;1.65;;;0.60;;
12451;SDS011;6291;48.924;12.204;2022-08-01T15:12:52;1.60;;;0.50;;
12451;SDS011;6291;48.924;12.204;2022-08-01T15:17:57;2.00;;;0.45;;
12451;SDS011;6291;48.924;12.204;2022-08-01T15:23:02;0.88;;;0.30;;
12451;SDS011;6291;48.924;12.204;2022-08-01T15:28:05;0.52;;;0.52;;
12451;SDS011;6291;48.924;12.204;2022-08-01T15:33:09;0.60;;;0.50;;
12451;SDS011;6291;48.924;12.204;2022-08-01T15:38:15;1.05;;;0.50;;
12451;SDS011;6291;48.924;12.204;2022-08-01T15:43:18;1.20;;;0.75;;
12451;SDS011;6291;48.924;12.204;2022-08-01T15:48:21;0.30;;;0.20;;
12451;SDS011;6291;48.924;12.204;2022-08-01T15:53:26;0.73;;;0.40;;
12451;SDS011;6291;48.924;12.204;2022-08-01T15:58:31;0.70;;;0.60;;
12451;SDS011;6291;48.924;12.204;2022-08-01T16:03:35;2.28;;;0.40;;
12451;SDS011;6291;48.924;12.204;2022-08-01T16:08:40;0.40;;;0.30;;
12451;SDS011;6291;48.924;12.204;2022-08-01T16:13:44;0.40;;;0.30;;
12451;SDS011;6291;48.924;12.204;2022-08-01T16:18:49;0.40;;;0.40;;
12451;SDS011;6291;48.924;12.204;2022-08-01T16:23:55;1.37;;;0.40;;
12451;SDS011;6291;48.924;12.204;2022-08-01T16:28:59;0.35;;;0.20;;
12451;SDS011;6291;48.924;12.204;2022-08-01T16:34:02;1.15;;;0.50;;
12451;SDS011;6291;48.924;12.204;2022-08-01T16:39:07;0.20;;;0.20;;
12451;SDS011;6291;48.924;12.204;2022-08-01T16:44:10;0.85;;;0.32;;
12451;SDS011;6291;48.924;12.204;2022-08-01T16:49:14;2.58;;;0.43;;
12451;SDS011;6291;48.924;12.204;2022-08-01T16:54:19;1.55;;;0.98;;
12451;SDS011;6291;48.924;12.204;2022-08-01T16:59:26;2.08;;;0.30;;
12451;SDS011;6291;48.924;12.204;2022-08-01T17:04:30;0.82;;;0.40;;
12451;SDS011;6291;48.924;12.204;2022-08-01T17:09:35;0.70;;;0.50;;
12451;SDS011;6291;48.924;12.204;2022-08-01T17:14:43;1.08;;;0.70;;
12451;SDS011;6291;48.924;12.204;2022-08-01T17:19:47;1.35;;;0.40;;
12451;SDS011;6291;48.924;12.204;2022-08-01T17:24:52;0.93;;;0.60;;
12451;SDS011;6291;48.924;12.204;2022-08-01T17:29:56;1.00;;;0.90;;
12451;SDS011;6291;48.924;12.204;2022-08-01T17:34:59;0.90;;;0.80;;
12451;SDS011;6291;48.924;12.204;2022-08-01T17:40:05;2.38;;;1.00;;
12451;SDS011;6291;48.924;12.204;2022-08-01T17:45:29;1.75;;;1.45;;
12451;SDS011;6291;48.924;12.204;2022-08-01T17:50:41;1.60;;;1.10;;
12451;SDS011;6291;48.924;12.204;2022-08-01T17:55:46;1.58;;;1.02;;
12451;SDS011;6291;48.924;12.204;2022-08-01T18:00:57;3.50;;;1.23;;
12451;SDS011;6291;48.924;12.204;2022-08-01T18:06:01;2.25;;;1.30;;
12451;SDS011;6291;48.924;12.204;2022-08-01T18:11:05;1.17;;;1.08;;
12451;SDS011;6291;48.924;12.204;2022-08-01T18:16:10;1.15;;;1.05;;
12451;SDS011;6291;48.924;12.204;2022-08-01T18:21:14;3.25;;;1.00;;
12451;SDS011;6291;48.924;12.204;2022-08-01T18:26:19;1.67;;;1.17;;
12451;SDS011;6291;48.924;12.204;2022-08-01T18:31:22;2.13;;;1.50;;
12451;SDS011;6291;48.924;12.204;2022-08-01T18:36:26;1.20;;;0.95;;
12451;SDS011;6291;48.924;12.204;2022-08-01T18:41:35;1.63;;;1.30;;
12451;SDS011;6291;48.924;12.204;2022-08-01T18:46:39;2.45;;;1.15;;
12451;SDS011;6291;48.924;12.204;2022-08-01T18:51:43;1.27;;;1.08;;
12451;SDS011;6291;48.924;12.204;2022-08-01T18:56:49;2.05;;;1.10;;
12451;SDS011;6291;48.924;12.204;2022-08-01T19:01:52;1.33;;;1.23;;
12451;SDS011;6291;48.924;12.204;2022-08-01T19:06:55;1.77;;;1.20;;
12451;SDS011;6291;48.924;12.204;2022-08-01T19:12:00;1.77;;;1.10;;
12451;SDS011;6291;48.924;12.204;2022-08-01T19:17:04;2.88;;;1.83;;
12451;SDS011;6291;48.924;12.204;2022-08-01T19:22:08;1.30;;;1.15;;
12451;SDS011;6291;48.924;12.204;2022-08-01T19:27:14;1.77;;;1.02;;
12451;SDS011;6291;48.924;12.204;2022-08-01T19:32:18;1.30;;;1.10;;
12451;SDS011;6291;48.924;12.204;2022-08-01T19:37:23;1.85;;;0.93;;
12451;SDS011;6291;48.924;12.204;2022-08-01T19:42:29;0.90;;;0.90;;
12451;SDS011;6291;48.924;12.204;2022-08-01T19:47:32;0.90;;;0.90;;
12451;SDS011;6291;48.924;12.204;2022-08-01T19:52:56;4.88;;;3.42;;
12451;SDS011;6291;48.924;12.204;2022-08-01T19:58:04;1.85;;;1.10;;
12451;SDS011;6291;48.924;12.204;2022-08-01T20:03:27;1.55;;;1.30;;
12451;SDS011;6291;48.924;12.204;2022-08-01T20:08:33;1.02;;;0.98;;
12451;SDS011;6291;48.924;12.204;2022-08-01T20:13:38;1.50;;;1.00;;
12451;SDS011;6291;48.924;12.204;2022-08-01T20:18:42;1.88;;;1.48;;
12451;SDS011;6291;48.924;12.204;2022-08-01T20:23:46;2.20;;;1.00;;
12451;SDS011;6291;48.924;12.204;2022-08-01T20:29:04;1.23;;;1.13;;
12451;SDS011;6291;48.924;12.204;2022-08-01T20:34:08;0.88;;;0.88;;
12451;SDS011;6291;48.924;12.204;2022-08-01T20:39:16;2.45;;;1.25;;
12451;SDS011;6291;48.924;12.204;2022-08-01T20:44:24;1.65;;;1.05;;
12451;SDS011;6291;48.924;12.204;2022-08-01T20:49:33;1.10;;;1.00;;
12451;SDS011;6291;48.924;12.204;2022-08-01T20:54:39;1.33;;;1.23;;
12451;SDS011;6291;48.924;12.204;2022-08-01T20:59:46;2.67;;;1.20;;
12451;SDS011;6291;48.924;12.204;2022-08-01T21:04:59;1.20;;;1.10;;
12451;SDS011;6291;48.924;12.204;2022-08-01T21:10:07;1.90;;;1.30;;
12451;SDS011;6291;48.924;12.204;2022-08-01T21:15:17;1.40;;;1.30;;
12451;SDS011;6291;48.924;12.204;2022-08-01T21:20:29;1.73;;;1.38;;
12451;SDS011;6291;48.924;12.204;2022-08-01T21:25:34;1.60;;;1.23;;
12451;SDS011;6291;48.924;12.204;2022-08-01T21:30:39;1.30;;;1.20;;
12451;SDS011;6291;48.924;12.204;2022-08-01T21:35:56;2.17;;;1.30;;
12451;SDS011;6291;48.924;12.204;2022-08-01T21:41:07;2.40;;;1.40;;
12451;SDS011;6291;48.924;12.204;2022-08-01T21:46:12;1.70;;;1.30;;
12451;SDS011;6291;48.924;12.204;2022-08-01T21:51:21;2.05;;;1.40;;
12451;SDS011;6291;48.924;12.204;2022-08-01T21:56:34;2.90;;;1.30;;
12451;SDS011;6291;48.924;12.204;2022-08-01T22:01:46;1.30;;;1.17;;
12451;SDS011;6291;48.924;12.204;2022-08-01T22:06:55;1.48;;;1.38;;
12451;SDS011;6291;48.924;12.204;2022-08-01T22:12:05;2.53;;;1.50;;
12451;SDS011;6291;48.924;12.204;2022-08-01T22:17:11;2.20;;;1.40;;
12451;SDS011;6291;48.924;12.204;2022-08-01T22:22:19;1.80;;;1.40;;
12451;SDS011;6291;48.924;12.204;2022-08-01T22:27:43;1.60;;;1.33;;
12451;SDS011;6291;48.924;12.204;2022-08-01T22:33:08;2.00;;;1.40;;
12451;SDS011;6291;48.924;12.204;2022-08-01T22:38:18;3.10;;;1.40;;
12451;SDS011;6291;48.924;12.204;2022-08-01T22:43:23;2.38;;;1.38;;
12451;SDS011;6291;48.924;12.204;2022-08-01T22:48:34;2.20;;;1.35;;
12451;SDS011;6291;48.924;12.204;2022-08-01T22:53:45;3.20;;;1.42;;
12451;SDS011;6291;48.924;12.204;2022-08-01T22:58:54;1.80;;;1.38;;
12451;SDS011;6291;48.924;12.204;2022-08-01T23:04:01;2.20;;;1.60;;
12451;SDS011;6291;48.924;12.204;2022-08-01T23:09:05;2.00;;;1.70;;
12451;SDS011;6291;48.924;12.204;2022-08-01T23:14:10;1.93;;;1.57;;
12451;SDS011;6291;48.924;12.204;2022-08-01T23:19:15;2.10;;;1.70;;
12451;SDS011;6291;48.924;12.204;2022-08-01T23:24:20;3.75;;;2.20;;
12451;SDS011;6291;48.924;12.204;2022-08-01T23:29:24;2.30;;;2.10;;
12451;SDS011;6291;48.924;12.204;2022-08-01T23:34:29;1.95;;;1.75;;
12451;SDS011;6291;48.924;12.204;2022-08-01T23:39:33;1.90;;;1.73;;
12451;SDS011;6291;48.924;12.204;2022-08-01T23:44:36;1.53;;;1.43;;
12451;SDS011;6291;48.924;12.204;2022-08-01T23:49:41;2.20;;;1.50;;
12451;SDS011;6291;48.924;12.204;2022-08-01T23:54:54;1.95;;;1.55;;
